sensor_id;sensor_type;location;lat;lon;timestamp;pressure;altitude;pressure_sealevel;temperature;humidity
62946;BME280;52164;52.212;-1.010;2023-05-25T00:01:53;101825.66;;;12.72;63.57
62946;BME280;52164;52.212;-1.010;2023-05-25T00:04:18;101826.35;;;12.69;63.45
62946;BME280;52164;52.212;-1.010;2023-05-25T00:06:44;101824.33;;;12.65;63.39
62946;BME280;52164;52.212;-1.010;2023-05-25T00:09:11;101822.63;;;12.59;63.49
62946;BME280;52164;52.212;-1.010;2023-05-25T00:11:36;101820.27;;;12.56;63.54
62946;BME280;52164;52.212;-1.010;2023-05-25T00:14:02;101824.15;;;12.52;63.65
62946;BME280;52164;52.212;-1.010;2023-05-25T00:16:27;101826.93;;;12.45;63.91
62946;BME280;52164;52.212;-1.010;2023-05-25T00:18:52;101831.86;;;12.39;63.68
62946;BME280;52164;52.212;-1.010;2023-05-25T00:21:21;101831.77;;;12.32;64.22
62946;BME280;52164;52.212;-1.010;2023-05-25T00:23:46;101829.73;;;12.28;64.29
62946;BME280;52164;52.212;-1.010;2023-05-25T00:26:12;101830.57;;;12.23;64.27
62946;BME280;52164;52.212;-1.010;2023-05-25T00:28:37;101829.09;;;12.20;64.31
62946;BME280;52164;52.212;-1.010;2023-05-25T00:31:02;101836.08;;;12.19;64.50
62946;BME280;52164;52.212;-1.010;2023-05-25T00:33:27;101838.60;;;12.21;64.40
62946;BME280;52164;52.212;-1.010;2023-05-25T00:35:53;101836.80;;;12.20;64.71
62946;BME280;52164;52.212;-1.010;2023-05-25T00:38:18;101841.10;;;12.22;64.86
62946;BME280;52164;52.212;-1.010;2023-05-25T00:40:44;101837.88;;;12.21;64.75
62946;BME280;52164;52.212;-1.010;2023-05-25T00:43:10;101837.48;;;12.19;65.01
62946;BME280;52164;52.212;-1.010;2023-05-25T00:45:36;101835.29;;;12.14;64.90
62946;BME280;52164;52.212;-1.010;2023-05-25T00:48:02;101838.61;;;12.10;64.93
62946;BME280;52164;52.212;-1.010;2023-05-25T00:50:35;101842.30;;;12.05;64.80
62946;BME280;52164;52.212;-1.010;2023-05-25T00:53:01;101840.45;;;12.02;65.20
62946;BME280;52164;52.212;-1.010;2023-05-25T00:55:26;101842.04;;;12.00;65.39
62946;BME280;52164;52.212;-1.010;2023-05-25T00:57:54;101846.00;;;12.02;65.92
62946;BME280;52164;52.212;-1.010;2023-05-25T01:00:21;101843.70;;;12.04;65.81
62946;BME280;52164;52.212;-1.010;2023-05-25T01:02:47;101842.65;;;12.05;66.00
62946;BME280;52164;52.212;-1.010;2023-05-25T01:05:16;101839.68;;;12.09;66.27
62946;BME280;52164;52.212;-1.010;2023-05-25T01:07:42;101843.65;;;12.12;66.22
62946;BME280;52164;52.212;-1.010;2023-05-25T01:10:09;101841.77;;;12.18;66.52
62946;BME280;52164;52.212;-1.010;2023-05-25T01:12:36;101845.79;;;12.24;66.44
62946;BME280;52164;52.212;-1.010;2023-05-25T01:15:02;101846.95;;;12.30;66.55
62946;BME280;52164;52.212;-1.010;2023-05-25T01:17:27;101856.14;;;12.34;66.66
62946;BME280;52164;52.212;-1.010;2023-05-25T01:19:53;101856.41;;;12.40;66.14
62946;BME280;52164;52.212;-1.010;2023-05-25T01:22:36;101859.88;;;12.45;66.09
62946;BME280;52164;52.212;-1.010;2023-05-25T01:25:12;101863.19;;;12.51;66.13
62946;BME280;52164;52.212;-1.010;2023-05-25T01:30:09;101865.77;;;12.58;66.08
62946;BME280;52164;52.212;-1.010;2023-05-25T01:32:35;101864.20;;;12.61;65.85
62946;BME280;52164;52.212;-1.010;2023-05-25T01:35:02;101861.73;;;12.62;65.85
62946;BME280;52164;52.212;-1.010;2023-05-25T01:37:28;101864.45;;;12.65;65.94
62946;BME280;52164;52.212;-1.010;2023-05-25T01:39:54;101865.55;;;12.68;65.75
62946;BME280;52164;52.212;-1.010;2023-05-25T01:42:20;101870.25;;;12.71;65.89
62946;BME280;52164;52.212;-1.010;2023-05-25T01:44:46;101870.44;;;12.72;65.72
62946;BME280;52164;52.212;-1.010;2023-05-25T01:47:15;101874.24;;;12.75;65.78
62946;BME280;52164;52.212;-1.010;2023-05-25T01:49:48;101873.93;;;12.78;66.08
62946;BME280;52164;52.212;-1.010;2023-05-25T01:52:17;101876.15;;;12.84;66.10
62946;BME280;52164;52.212;-1.010;2023-05-25T01:54:46;101878.70;;;12.88;66.24
62946;BME280;52164;52.212;-1.010;2023-05-25T01:57:16;101879.86;;;12.94;66.13
62946;BME280;52164;52.212;-1.010;2023-05-25T01:59:43;101873.27;;;12.97;66.10
62946;BME280;52164;52.212;-1.010;2023-05-25T02:02:09;101872.37;;;12.97;66.01
62946;BME280;52164;52.212;-1.010;2023-05-25T02:04:36;101870.71;;;12.94;66.30
62946;BME280;52164;52.212;-1.010;2023-05-25T02:07:02;101871.42;;;12.93;66.52
62946;BME280;52164;52.212;-1.010;2023-05-25T02:09:31;101870.71;;;12.93;66.67
62946;BME280;52164;52.212;-1.010;2023-05-25T02:11:56;101868.72;;;12.92;66.41
62946;BME280;52164;52.212;-1.010;2023-05-25T02:14:21;101871.21;;;12.90;66.77
62946;BME280;52164;52.212;-1.010;2023-05-25T02:16:46;101871.94;;;12.91;67.00
62946;BME280;52164;52.212;-1.010;2023-05-25T02:19:12;101873.55;;;12.90;66.87
62946;BME280;52164;52.212;-1.010;2023-05-25T02:21:39;101873.70;;;12.90;67.03
62946;BME280;52164;52.212;-1.010;2023-05-25T02:24:05;101872.98;;;12.90;67.38
62946;BME280;52164;52.212;-1.010;2023-05-25T02:26:30;101872.64;;;12.90;67.42
62946;BME280;52164;52.212;-1.010;2023-05-25T02:28:56;101872.48;;;12.92;67.44
62946;BME280;52164;52.212;-1.010;2023-05-25T02:31:21;101871.61;;;12.94;67.50
62946;BME280;52164;52.212;-1.010;2023-05-25T02:33:46;101868.91;;;12.93;67.36
62946;BME280;52164;52.212;-1.010;2023-05-25T02:36:11;101866.93;;;12.92;67.44
62946;BME280;52164;52.212;-1.010;2023-05-25T02:38:37;101865.85;;;12.92;67.57
62946;BME280;52164;52.212;-1.010;2023-05-25T02:41:02;101870.15;;;12.92;67.83
62946;BME280;52164;52.212;-1.010;2023-05-25T02:43:27;101873.92;;;12.93;67.61
62946;BME280;52164;52.212;-1.010;2023-05-25T02:45:52;101875.90;;;12.93;67.76
62946;BME280;52164;52.212;-1.010;2023-05-25T02:48:18;101871.08;;;12.95;67.75
62946;BME280;52164;52.212;-1.010;2023-05-25T02:50:43;101870.92;;;12.96;67.73
62946;BME280;52164;52.212;-1.010;2023-05-25T02:53:09;101867.16;;;12.96;68.03
62946;BME280;52164;52.212;-1.010;2023-05-25T02:55:34;101868.05;;;12.96;67.88
62946;BME280;52164;52.212;-1.010;2023-05-25T02:57:59;101868.04;;;12.95;67.83
62946;BME280;52164;52.212;-1.010;2023-05-25T03:00:25;101871.95;;;12.92;67.97
62946;BME280;52164;52.212;-1.010;2023-05-25T03:02:50;101874.60;;;12.90;67.85
62946;BME280;52164;52.212;-1.010;2023-05-25T03:05:16;101870.81;;;12.88;68.23
62946;BME280;52164;52.212;-1.010;2023-05-25T03:07:41;101868.67;;;12.89;68.37
62946;BME280;52164;52.212;-1.010;2023-05-25T03:10:08;101874.21;;;12.88;68.16
62946;BME280;52164;52.212;-1.010;2023-05-25T03:12:34;101873.48;;;12.85;68.40
62946;BME280;52164;52.212;-1.010;2023-05-25T03:14:59;101872.92;;;12.84;68.47
62946;BME280;52164;52.212;-1.010;2023-05-25T03:17:25;101875.98;;;12.85;68.42
62946;BME280;52164;52.212;-1.010;2023-05-25T03:19:50;101877.05;;;12.84;68.31
62946;BME280;52164;52.212;-1.010;2023-05-25T03:22:16;101877.77;;;12.84;68.19
62946;BME280;52164;52.212;-1.010;2023-05-25T03:24:41;101879.39;;;12.85;68.60
62946;BME280;52164;52.212;-1.010;2023-05-25T03:27:06;101888.37;;;12.89;68.77
62946;BME280;52164;52.212;-1.010;2023-05-25T03:29:32;101887.72;;;12.92;68.88
62946;BME280;52164;52.212;-1.010;2023-05-25T03:31:57;101889.58;;;12.98;68.87
62946;BME280;52164;52.212;-1.010;2023-05-25T03:34:23;101883.37;;;13.03;69.06
62946;BME280;52164;52.212;-1.010;2023-05-25T03:36:49;101883.77;;;13.07;68.70
62946;BME280;52164;52.212;-1.010;2023-05-25T03:39:15;101879.86;;;13.11;68.34
62946;BME280;52164;52.212;-1.010;2023-05-25T03:41:40;101881.86;;;13.13;68.16
62946;BME280;52164;52.212;-1.010;2023-05-25T03:44:07;101884.95;;;13.15;68.32
62946;BME280;52164;52.212;-1.010;2023-05-25T03:46:35;101880.33;;;13.18;68.16
62946;BME280;52164;52.212;-1.010;2023-05-25T03:49:00;101883.05;;;13.23;68.20
62946;BME280;52164;52.212;-1.010;2023-05-25T03:51:26;101881.83;;;13.26;68.24
62946;BME280;52164;52.212;-1.010;2023-05-25T03:53:52;101884.39;;;13.30;68.25
62946;BME280;52164;52.212;-1.010;2023-05-25T03:56:17;101885.88;;;13.34;68.34
62946;BME280;52164;52.212;-1.010;2023-05-25T03:58:42;101887.90;;;13.37;68.20
62946;BME280;52164;52.212;-1.010;2023-05-25T04:01:08;101892.02;;;13.39;67.93
62946;BME280;52164;52.212;-1.010;2023-05-25T04:03:34;101887.92;;;13.41;67.91
62946;BME280;52164;52.212;-1.010;2023-05-25T04:05:59;101888.31;;;13.43;68.09
62946;BME280;52164;52.212;-1.010;2023-05-25T04:08:26;101890.30;;;13.44;68.28
62946;BME280;52164;52.212;-1.010;2023-05-25T04:10:53;101887.98;;;13.45;68.10
62946;BME280;52164;52.212;-1.010;2023-05-25T04:13:18;101884.94;;;13.45;68.22
62946;BME280;52164;52.212;-1.010;2023-05-25T04:15:43;101886.21;;;13.47;67.97
62946;BME280;52164;52.212;-1.010;2023-05-25T04:18:08;101882.98;;;13.47;68.05
62946;BME280;52164;52.212;-1.010;2023-05-25T04:20:34;101889.42;;;13.46;68.24
62946;BME280;52164;52.212;-1.010;2023-05-25T04:22:59;101891.23;;;13.46;68.18
62946;BME280;52164;52.212;-1.010;2023-05-25T04:25:25;101893.19;;;13.46;68.41
62946;BME280;52164;52.212;-1.010;2023-05-25T04:27:50;101893.55;;;13.47;68.03
62946;BME280;52164;52.212;-1.010;2023-05-25T04:30:17;101891.77;;;13.46;68.10
62946;BME280;52164;52.212;-1.010;2023-05-25T04:32:42;101893.02;;;13.47;68.26
62946;BME280;52164;52.212;-1.010;2023-05-25T04:35:09;101897.52;;;13.49;68.33
62946;BME280;52164;52.212;-1.010;2023-05-25T04:37:34;101902.92;;;13.51;68.30
62946;BME280;52164;52.212;-1.010;2023-05-25T04:40:00;101907.25;;;13.52;68.22
62946;BME280;52164;52.212;-1.010;2023-05-25T04:42:30;101910.84;;;13.53;68.04
62946;BME280;52164;52.212;-1.010;2023-05-25T04:44:56;101917.15;;;13.55;68.18
62946;BME280;52164;52.212;-1.010;2023-05-25T04:47:24;101922.89;;;13.58;68.38
62946;BME280;52164;52.212;-1.010;2023-05-25T04:49:50;101925.63;;;13.61;68.03
62946;BME280;52164;52.212;-1.010;2023-05-25T04:52:15;101929.25;;;13.64;68.25
62946;BME280;52164;52.212;-1.010;2023-05-25T04:54:40;101933.92;;;13.67;68.32
62946;BME280;52164;52.212;-1.010;2023-05-25T04:57:05;101937.20;;;13.70;68.26
62946;BME280;52164;52.212;-1.010;2023-05-25T04:59:31;101937.23;;;13.76;68.18
62946;BME280;52164;52.212;-1.010;2023-05-25T05:01:56;101938.20;;;13.83;67.88
62946;BME280;52164;52.212;-1.010;2023-05-25T05:04:21;101941.70;;;13.91;67.64
62946;BME280;52164;52.212;-1.010;2023-05-25T05:06:46;101941.58;;;13.98;67.68
62946;BME280;52164;52.212;-1.010;2023-05-25T05:09:12;101941.29;;;14.06;67.09
62946;BME280;52164;52.212;-1.010;2023-05-25T05:11:38;101945.64;;;14.13;66.00
62946;BME280;52164;52.212;-1.010;2023-05-25T05:14:03;101945.89;;;14.19;65.36
62946;BME280;52164;52.212;-1.010;2023-05-25T05:16:29;101945.02;;;14.23;64.42
62946;BME280;52164;52.212;-1.010;2023-05-25T05:18:58;101949.34;;;14.25;63.64
62946;BME280;52164;52.212;-1.010;2023-05-25T05:21:23;101950.42;;;14.25;63.24
62946;BME280;52164;52.212;-1.010;2023-05-25T05:23:49;101954.36;;;14.24;62.37
62946;BME280;52164;52.212;-1.010;2023-05-25T05:26:14;101956.50;;;14.22;62.10
62946;BME280;52164;52.212;-1.010;2023-05-25T05:28:40;101958.83;;;14.19;62.17
62946;BME280;52164;52.212;-1.010;2023-05-25T05:31:05;101961.85;;;14.17;62.22
62946;BME280;52164;52.212;-1.010;2023-05-25T05:33:31;101961.46;;;14.14;62.53
62946;BME280;52164;52.212;-1.010;2023-05-25T05:35:57;101959.83;;;14.12;62.58
62946;BME280;52164;52.212;-1.010;2023-05-25T05:38:22;101964.85;;;14.12;62.65
62946;BME280;52164;52.212;-1.010;2023-05-25T05:40:48;101964.13;;;14.11;62.67
62946;BME280;52164;52.212;-1.010;2023-05-25T05:43:13;101964.31;;;14.10;62.96
62946;BME280;52164;52.212;-1.010;2023-05-25T05:45:39;101964.48;;;14.11;63.11
62946;BME280;52164;52.212;-1.010;2023-05-25T05:48:07;101975.98;;;14.11;62.92
62946;BME280;52164;52.212;-1.010;2023-05-25T05:50:34;101973.46;;;14.11;62.99
62946;BME280;52164;52.212;-1.010;2023-05-25T05:52:59;101973.47;;;14.12;63.08
62946;BME280;52164;52.212;-1.010;2023-05-25T05:55:25;101974.92;;;14.15;62.95
62946;BME280;52164;52.212;-1.010;2023-05-25T05:57:50;101971.01;;;14.16;63.05
62946;BME280;52164;52.212;-1.010;2023-05-25T06:00:15;101974.79;;;14.19;62.80
62946;BME280;52164;52.212;-1.010;2023-05-25T06:02:41;101976.25;;;14.22;62.97
62946;BME280;52164;52.212;-1.010;2023-05-25T06:05:07;101979.67;;;14.23;62.41
62946;BME280;52164;52.212;-1.010;2023-05-25T06:07:32;101984.70;;;14.25;62.36
62946;BME280;52164;52.212;-1.010;2023-05-25T06:09:59;101988.14;;;14.26;62.31
62946;BME280;52164;52.212;-1.010;2023-05-25T06:12:26;101989.06;;;14.29;62.32
62946;BME280;52164;52.212;-1.010;2023-05-25T06:14:52;101989.80;;;14.30;62.62
62946;BME280;52164;52.212;-1.010;2023-05-25T06:17:17;101991.05;;;14.31;62.57
62946;BME280;52164;52.212;-1.010;2023-05-25T06:19:43;101998.09;;;14.34;62.31
62946;BME280;52164;52.212;-1.010;2023-05-25T06:22:08;101993.61;;;14.35;62.42
62946;BME280;52164;52.212;-1.010;2023-05-25T06:24:33;102002.25;;;14.39;62.36
62946;BME280;52164;52.212;-1.010;2023-05-25T06:26:58;101994.90;;;14.40;62.41
62946;BME280;52164;52.212;-1.010;2023-05-25T06:29:24;101992.38;;;14.41;62.30
62946;BME280;52164;52.212;-1.010;2023-05-25T06:31:49;101991.67;;;14.41;62.20
62946;BME280;52164;52.212;-1.010;2023-05-25T06:34:15;101988.99;;;14.43;62.37
62946;BME280;52164;52.212;-1.010;2023-05-25T06:36:40;101989.56;;;14.47;62.60
62946;BME280;52164;52.212;-1.010;2023-05-25T06:39:05;101991.91;;;14.51;62.50
62946;BME280;52164;52.212;-1.010;2023-05-25T06:41:31;101989.79;;;14.54;62.42
62946;BME280;52164;52.212;-1.010;2023-05-25T06:43:56;101994.52;;;14.60;62.45
62946;BME280;52164;52.212;-1.010;2023-05-25T06:46:21;101992.41;;;14.64;62.40
62946;BME280;52164;52.212;-1.010;2023-05-25T06:48:48;101993.88;;;14.69;62.22
62946;BME280;52164;52.212;-1.010;2023-05-25T06:51:14;101999.48;;;14.72;62.30
62946;BME280;52164;52.212;-1.010;2023-05-25T06:53:39;102002.38;;;14.76;62.23
62946;BME280;52164;52.212;-1.010;2023-05-25T06:56:05;101998.61;;;14.80;62.22
62946;BME280;52164;52.212;-1.010;2023-05-25T06:58:30;101996.66;;;14.83;62.26
62946;BME280;52164;52.212;-1.010;2023-05-25T07:00:56;101997.95;;;14.88;62.06
62946;BME280;52164;52.212;-1.010;2023-05-25T07:03:21;101995.98;;;14.90;61.93
62946;BME280;52164;52.212;-1.010;2023-05-25T07:05:46;102003.02;;;14.93;61.93
62946;BME280;52164;52.212;-1.010;2023-05-25T07:08:11;102007.01;;;15.00;62.41
62946;BME280;52164;52.212;-1.010;2023-05-25T07:10:36;102008.13;;;15.07;62.10
62946;BME280;52164;52.212;-1.010;2023-05-25T07:13:02;102010.15;;;15.15;61.65
62946;BME280;52164;52.212;-1.010;2023-05-25T07:15:27;102011.98;;;15.24;61.40
62946;BME280;52164;52.212;-1.010;2023-05-25T07:17:52;102017.41;;;15.30;61.07
62946;BME280;52164;52.212;-1.010;2023-05-25T07:20:21;102020.48;;;15.33;60.94
62946;BME280;52164;52.212;-1.010;2023-05-25T07:22:47;102023.39;;;15.41;60.93
62946;BME280;52164;52.212;-1.010;2023-05-25T07:25:13;102020.73;;;15.52;60.69
62946;BME280;52164;52.212;-1.010;2023-05-25T07:27:38;102022.22;;;15.63;60.52
62946;BME280;52164;52.212;-1.010;2023-05-25T07:30:04;102025.68;;;15.75;60.38
62946;BME280;52164;52.212;-1.010;2023-05-25T07:32:30;102022.67;;;15.91;60.07
62946;BME280;52164;52.212;-1.010;2023-05-25T07:34:55;102022.52;;;16.03;59.41
62946;BME280;52164;52.212;-1.010;2023-05-25T07:37:20;102024.34;;;16.12;59.06
62946;BME280;52164;52.212;-1.010;2023-05-25T07:39:46;102023.25;;;16.18;58.76
62946;BME280;52164;52.212;-1.010;2023-05-25T07:42:11;102027.05;;;16.26;58.59
62946;BME280;52164;52.212;-1.010;2023-05-25T07:44:36;102020.38;;;16.32;58.33
62946;BME280;52164;52.212;-1.010;2023-05-25T07:47:01;102020.38;;;16.34;58.13
62946;BME280;52164;52.212;-1.010;2023-05-25T07:49:28;102029.22;;;16.41;58.02
62946;BME280;52164;52.212;-1.010;2023-05-25T07:51:53;102026.88;;;16.51;57.80
62946;BME280;52164;52.212;-1.010;2023-05-25T07:54:18;102025.23;;;16.60;57.68
62946;BME280;52164;52.212;-1.010;2023-05-25T07:56:43;102025.77;;;16.68;57.36
62946;BME280;52164;52.212;-1.010;2023-05-25T07:59:08;102029.38;;;16.76;57.20
62946;BME280;52164;52.212;-1.010;2023-05-25T08:01:34;102031.88;;;16.82;56.70
62946;BME280;52164;52.212;-1.010;2023-05-25T08:04:00;102035.66;;;16.86;56.40
62946;BME280;52164;52.212;-1.010;2023-05-25T08:06:26;102040.55;;;16.80;56.35
62946;BME280;52164;52.212;-1.010;2023-05-25T08:08:51;102047.23;;;16.68;56.17
62946;BME280;52164;52.212;-1.010;2023-05-25T08:11:16;102050.48;;;16.58;55.96
62946;BME280;52164;52.212;-1.010;2023-05-25T08:13:46;102049.75;;;16.57;56.09
62946;BME280;52164;52.212;-1.010;2023-05-25T08:16:11;102048.67;;;16.56;56.40
62946;BME280;52164;52.212;-1.010;2023-05-25T08:18:36;102045.61;;;16.57;56.88
62946;BME280;52164;52.212;-1.010;2023-05-25T08:21:01;102046.50;;;16.69;56.92
62946;BME280;52164;52.212;-1.010;2023-05-25T08:23:27;102045.42;;;16.75;56.40
62946;BME280;52164;52.212;-1.010;2023-05-25T08:25:52;102050.47;;;16.96;56.34
62946;BME280;52164;52.212;-1.010;2023-05-25T08:28:19;102045.21;;;17.03;56.10
62946;BME280;52164;52.212;-1.010;2023-05-25T08:30:44;102054.96;;;17.00;55.72
62946;BME280;52164;52.212;-1.010;2023-05-25T08:33:10;102056.77;;;16.89;55.66
62946;BME280;52164;52.212;-1.010;2023-05-25T08:35:35;102056.59;;;16.86;55.86
62946;BME280;52164;52.212;-1.010;2023-05-25T08:38:04;102053.52;;;16.98;55.54
62946;BME280;52164;52.212;-1.010;2023-05-25T08:40:30;102047.37;;;17.11;55.52
62946;BME280;52164;52.212;-1.010;2023-05-25T08:42:55;102050.93;;;17.25;55.31
62946;BME280;52164;52.212;-1.010;2023-05-25T08:45:21;102055.23;;;17.36;55.20
62946;BME280;52164;52.212;-1.010;2023-05-25T08:47:46;102056.46;;;17.39;54.72
62946;BME280;52164;52.212;-1.010;2023-05-25T08:50:14;102062.77;;;17.46;54.45
62946;BME280;52164;52.212;-1.010;2023-05-25T08:52:43;102063.67;;;17.49;54.41
62946;BME280;52164;52.212;-1.010;2023-05-25T08:55:09;102062.25;;;17.41;54.21
62946;BME280;52164;52.212;-1.010;2023-05-25T09:00:03;102058.52;;;17.23;54.40
62946;BME280;52164;52.212;-1.010;2023-05-25T09:02:53;102059.02;;;17.32;54.74
62946;BME280;52164;52.212;-1.010;2023-05-25T09:05:19;102067.09;;;17.50;54.54
62946;BME280;52164;52.212;-1.010;2023-05-25T09:07:44;102068.14;;;17.57;54.06
62946;BME280;52164;52.212;-1.010;2023-05-25T09:10:10;102066.09;;;17.68;54.01
62946;BME280;52164;52.212;-1.010;2023-05-25T09:12:37;102063.13;;;17.85;54.05
62946;BME280;52164;52.212;-1.010;2023-05-25T09:15:04;102059.08;;;18.04;53.60
62946;BME280;52164;52.212;-1.010;2023-05-25T09:17:29;102063.61;;;18.27;52.88
62946;BME280;52164;52.212;-1.010;2023-05-25T09:19:55;102066.30;;;18.54;52.35
62946;BME280;52164;52.212;-1.010;2023-05-25T09:22:20;102072.27;;;18.75;52.42
62946;BME280;52164;52.212;-1.010;2023-05-25T09:24:46;102076.07;;;18.74;52.45
62946;BME280;52164;52.212;-1.010;2023-05-25T09:27:14;102077.70;;;18.75;52.24
62946;BME280;52164;52.212;-1.010;2023-05-25T09:29:41;102076.41;;;18.98;52.00
62946;BME280;52164;52.212;-1.010;2023-05-25T09:32:06;102079.11;;;19.17;51.25
62946;BME280;52164;52.212;-1.010;2023-05-25T09:34:32;102073.77;;;19.26;50.34
62946;BME280;52164;52.212;-1.010;2023-05-25T09:36:59;102076.81;;;19.29;50.48
62946;BME280;52164;52.212;-1.010;2023-05-25T09:39:24;102072.63;;;19.32;50.08
62946;BME280;52164;52.212;-1.010;2023-05-25T09:41:51;102079.05;;;19.24;49.92
62946;BME280;52164;52.212;-1.010;2023-05-25T09:44:16;102082.29;;;19.08;49.57
62946;BME280;52164;52.212;-1.010;2023-05-25T09:46:41;102080.82;;;19.10;49.75
62946;BME280;52164;52.212;-1.010;2023-05-25T09:49:08;102081.15;;;19.14;49.65
62946;BME280;52164;52.212;-1.010;2023-05-25T09:51:36;102082.51;;;19.05;49.93
62946;BME280;52164;52.212;-1.010;2023-05-25T09:54:02;102081.11;;;18.99;49.81
62946;BME280;52164;52.212;-1.010;2023-05-25T09:56:29;102083.91;;;19.09;49.72
62946;BME280;52164;52.212;-1.010;2023-05-25T09:58:55;102085.27;;;19.16;49.45
62946;BME280;52164;52.212;-1.010;2023-05-25T10:01:20;102083.80;;;19.18;49.39
62946;BME280;52164;52.212;-1.010;2023-05-25T10:03:47;102081.55;;;19.26;49.54
62946;BME280;52164;52.212;-1.010;2023-05-25T10:06:13;102079.75;;;19.26;49.45
62946;BME280;52164;52.212;-1.010;2023-05-25T10:08:41;102074.84;;;19.27;49.60
62946;BME280;52164;52.212;-1.010;2023-05-25T10:11:07;102078.72;;;19.36;49.72
62946;BME280;52164;52.212;-1.010;2023-05-25T10:13:33;102084.11;;;19.55;49.39
62946;BME280;52164;52.212;-1.010;2023-05-25T10:15:58;102088.86;;;19.83;49.29
62946;BME280;52164;52.212;-1.010;2023-05-25T10:18:25;102086.77;;;20.03;48.86
62946;BME280;52164;52.212;-1.010;2023-05-25T10:20:52;102090.96;;;20.14;48.54
62946;BME280;52164;52.212;-1.010;2023-05-25T10:23:19;102088.82;;;20.24;48.27
62946;BME280;52164;52.212;-1.010;2023-05-25T10:25:47;102090.37;;;20.29;48.08
62946;BME280;52164;52.212;-1.010;2023-05-25T10:28:20;102091.71;;;20.37;47.75
62946;BME280;52164;52.212;-1.010;2023-05-25T10:30:46;102084.06;;;20.26;47.19
62946;BME280;52164;52.212;-1.010;2023-05-25T10:33:11;102086.33;;;20.08;47.00
62946;BME280;52164;52.212;-1.010;2023-05-25T10:35:38;102085.39;;;19.98;46.95
62946;BME280;52164;52.212;-1.010;2023-05-25T10:38:04;102088.18;;;19.94;47.43
62946;BME280;52164;52.212;-1.010;2023-05-25T10:40:29;102087.80;;;19.95;47.89
62946;BME280;52164;52.212;-1.010;2023-05-25T10:42:56;102088.27;;;19.99;47.70
62946;BME280;52164;52.212;-1.010;2023-05-25T10:45:22;102091.86;;;19.88;48.04
62946;BME280;52164;52.212;-1.010;2023-05-25T10:47:48;102092.12;;;19.82;47.91
62946;BME280;52164;52.212;-1.010;2023-05-25T10:50:18;102095.05;;;19.79;47.85
62946;BME280;52164;52.212;-1.010;2023-05-25T10:52:44;102097.08;;;20.04;47.93
62946;BME280;52164;52.212;-1.010;2023-05-25T10:55:10;102103.77;;;20.30;47.18
62946;BME280;52164;52.212;-1.010;2023-05-25T10:57:36;102108.50;;;20.52;47.72
62946;BME280;52164;52.212;-1.010;2023-05-25T11:00:03;102109.36;;;20.79;47.02
62946;BME280;52164;52.212;-1.010;2023-05-25T11:02:30;102102.04;;;21.03;46.94
62946;BME280;52164;52.212;-1.010;2023-05-25T11:05:31;102102.83;;;21.29;46.59
62946;BME280;52164;52.212;-1.010;2023-05-25T11:10:53;102104.43;;;21.59;45.49
62946;BME280;52164;52.212;-1.010;2023-05-25T11:13:47;102101.26;;;21.44;45.02
62946;BME280;52164;52.212;-1.010;2023-05-25T11:16:12;102102.42;;;21.32;45.55
62946;BME280;52164;52.212;-1.010;2023-05-25T11:18:40;102105.13;;;21.13;45.48
62946;BME280;52164;52.212;-1.010;2023-05-25T11:21:14;102100.73;;;20.95;45.35
62946;BME280;52164;52.212;-1.010;2023-05-25T11:24:46;102098.98;;;20.81;45.62
62946;BME280;52164;52.212;-1.010;2023-05-25T11:26:27;102095.74;;;20.79;45.58
62946;BME280;52164;52.212;-1.010;2023-05-25T11:28:53;102091.40;;;20.79;45.42
62946;BME280;52164;52.212;-1.010;2023-05-25T11:33:48;102088.80;;;21.13;45.45
62946;BME280;52164;52.212;-1.010;2023-05-25T11:36:15;102087.61;;;21.26;45.26
62946;BME280;52164;52.212;-1.010;2023-05-25T11:38:41;102082.66;;;21.39;45.35
62946;BME280;52164;52.212;-1.010;2023-05-25T11:41:17;102086.08;;;21.40;44.93
62946;BME280;52164;52.212;-1.010;2023-05-25T11:43:44;102083.23;;;21.56;45.11
62946;BME280;52164;52.212;-1.010;2023-05-25T11:46:09;102082.35;;;21.82;44.62
62946;BME280;52164;52.212;-1.010;2023-05-25T11:48:34;102080.15;;;22.06;43.86
62946;BME280;52164;52.212;-1.010;2023-05-25T11:51:04;102082.70;;;22.30;44.11
62946;BME280;52164;52.212;-1.010;2023-05-25T11:53:29;102083.06;;;22.53;42.95
62946;BME280;52164;52.212;-1.010;2023-05-25T11:55:55;102078.66;;;22.76;43.38
62946;BME280;52164;52.212;-1.010;2023-05-25T11:58:20;102076.13;;;23.03;42.47
62946;BME280;52164;52.212;-1.010;2023-05-25T12:00:45;102075.23;;;23.23;42.37
62946;BME280;52164;52.212;-1.010;2023-05-25T12:03:27;102068.42;;;23.51;41.82
62946;BME280;52164;52.212;-1.010;2023-05-25T12:05:52;102070.14;;;23.61;41.85
62946;BME280;52164;52.212;-1.010;2023-05-25T12:08:30;102068.11;;;23.68;41.10
62946;BME280;52164;52.212;-1.010;2023-05-25T12:10:55;102066.44;;;24.00;40.81
62946;BME280;52164;52.212;-1.010;2023-05-25T12:13:21;102066.84;;;24.10;40.46
62946;BME280;52164;52.212;-1.010;2023-05-25T12:15:46;102063.02;;;24.21;39.90
62946;BME280;52164;52.212;-1.010;2023-05-25T12:18:12;102062.68;;;24.31;40.32
62946;BME280;52164;52.212;-1.010;2023-05-25T12:20:39;102069.98;;;24.54;39.72
62946;BME280;52164;52.212;-1.010;2023-05-25T12:23:05;102068.81;;;24.73;39.67
62946;BME280;52164;52.212;-1.010;2023-05-25T12:25:31;102068.85;;;24.87;39.12
62946;BME280;52164;52.212;-1.010;2023-05-25T12:28:12;102071.41;;;25.02;39.14
62946;BME280;52164;52.212;-1.010;2023-05-25T12:30:38;102072.11;;;25.03;38.56
62946;BME280;52164;52.212;-1.010;2023-05-25T12:33:04;102073.46;;;24.96;38.44
62946;BME280;52164;52.212;-1.010;2023-05-25T12:35:30;102071.63;;;25.07;38.47
62946;BME280;52164;52.212;-1.010;2023-05-25T12:38:11;102075.12;;;24.96;38.32
62946;BME280;52164;52.212;-1.010;2023-05-25T12:40:36;102071.38;;;25.18;38.10
62946;BME280;52164;52.212;-1.010;2023-05-25T12:43:01;102073.63;;;25.43;38.65
62946;BME280;52164;52.212;-1.010;2023-05-25T12:45:27;102070.13;;;25.67;37.89
62946;BME280;52164;52.212;-1.010;2023-05-25T12:47:52;102072.65;;;25.92;37.34